createdAt,value
2022-11-12T00:00:52.966Z,100.00
2022-11-12T00:01:51.546Z,100.00
2022-11-12T00:03:20.024Z,100.00
2022-11-12T00:05:46.724Z,100.00
2022-11-12T00:06:51.495Z,100.00
2022-11-12T00:08:13.606Z,100.00
2022-11-12T00:10:40.044Z,100.00
2022-11-12T00:11:51.485Z,100.00
2022-11-12T00:13:06.503Z,100.00
2022-11-12T00:15:32.916Z,100.00
2022-11-12T00:16:51.477Z,100.00
2022-11-12T00:17:59.468Z,100.00
2022-11-12T00:20:26.014Z,100.00
2022-11-12T00:21:51.467Z,100.00
2022-11-12T00:22:52.465Z,100.00
2022-11-12T00:25:18.917Z,100.00
2022-11-12T00:26:51.478Z,100.00
2022-11-12T00:27:45.277Z,100.00
2022-11-12T00:30:12.069Z,100.00
2022-11-12T00:31:51.484Z,100.00
2022-11-12T00:32:38.710Z,100.00
2022-11-12T00:35:08.708Z,100.00
2022-11-12T00:36:51.528Z,100.00
2022-11-12T00:37:37.739Z,100.00
2022-11-12T00:40:04.540Z,100.00
2022-11-12T00:41:51.478Z,100.00
2022-11-12T00:42:30.863Z,100.00
2022-11-12T00:44:57.178Z,100.00
2022-11-12T00:46:51.487Z,100.00
2022-11-12T00:47:23.604Z,100.00
2022-11-12T00:49:49.968Z,100.00
2022-11-12T00:51:51.480Z,100.00
2022-11-12T00:52:16.385Z,100.00
2022-11-12T00:54:42.812Z,100.00
2022-11-12T00:56:51.460Z,100.00
2022-11-12T00:57:09.136Z,100.00
2022-11-12T00:59:35.487Z,100.00
2022-11-12T01:01:51.465Z,100.00
2022-11-12T01:02:02.015Z,100.00
2022-11-12T01:04:28.428Z,100.00
2022-11-12T01:06:51.532Z,100.00
2022-11-12T01:06:54.799Z,100.00
2022-11-12T01:09:21.191Z,100.00
2022-11-12T01:11:48.073Z,100.00
2022-11-12T01:11:51.476Z,100.00
2022-11-12T01:14:14.470Z,100.00
2022-11-12T01:16:42.773Z,100.00
2022-11-12T01:16:51.470Z,100.00
2022-11-12T01:19:11.584Z,100.00
2022-11-12T01:21:40.882Z,100.00
2022-11-12T01:21:51.468Z,100.00
2022-11-12T01:24:07.933Z,100.00
2022-11-12T01:26:34.964Z,100.00
2022-11-12T01:26:51.479Z,100.00
2022-11-12T01:29:01.588Z,100.00
2022-11-12T01:31:33.756Z,100.00
2022-11-12T01:31:51.461Z,100.00
2022-11-12T01:34:02.760Z,100.00
2022-11-12T01:36:34.513Z,100.00
2022-11-12T01:36:51.546Z,100.00
2022-11-12T01:39:01.059Z,100.00
2022-11-12T01:41:33.090Z,100.00
2022-11-12T01:41:51.468Z,100.00
2022-11-12T01:44:24.717Z,100.00
2022-11-12T01:47:02.831Z,100.00
2022-11-12T01:47:02.951Z,100.00
2022-11-12T01:50:00.883Z,100.00
2022-11-12T01:51:51.448Z,100.00
2022-11-12T01:52:34.795Z,100.00
2022-11-12T01:55:11.319Z,100.00
2022-11-12T01:56:51.463Z,100.00
2022-11-12T01:57:45.250Z,100.00
2022-11-12T02:00:13.800Z,100.00
2022-11-12T02:01:51.498Z,100.00
2022-11-12T02:02:40.792Z,100.00
2022-11-12T02:05:10.129Z,100.00
2022-11-12T02:06:51.490Z,100.00
2022-11-12T02:07:39.575Z,100.00
2022-11-12T02:10:07.489Z,100.00
2022-11-12T02:11:51.481Z,100.00
2022-11-12T02:12:53.137Z,100.00
2022-11-12T02:15:19.496Z,100.00
2022-11-12T02:16:51.635Z,100.00
2022-11-12T02:17:45.990Z,100.00
2022-11-12T02:20:13.952Z,100.00
2022-11-12T02:21:51.478Z,100.00
2022-11-12T02:22:40.365Z,100.00
2022-11-12T02:25:09.250Z,100.00
2022-11-12T02:26:51.466Z,100.00
2022-11-12T02:27:35.828Z,100.00
2022-11-12T02:30:02.246Z,100.00
2022-11-12T02:31:51.478Z,100.00
2022-11-12T02:32:28.543Z,100.00
2022-11-12T02:34:54.875Z,100.00
2022-11-12T02:36:51.576Z,100.00
2022-11-12T02:37:21.307Z,100.00
2022-11-12T02:39:47.602Z,100.00
2022-11-12T02:41:51.480Z,100.00
2022-11-12T02:42:14.016Z,100.00
2022-11-12T02:44:40.863Z,100.00
2022-11-12T02:46:51.477Z,100.00
2022-11-12T02:47:07.172Z,100.00
2022-11-12T02:49:33.565Z,100.00
2022-11-12T02:51:51.489Z,100.00
2022-11-12T02:51:59.963Z,100.00
2022-11-12T02:54:26.292Z,100.00
2022-11-12T02:56:52.687Z,100.00
2022-11-12T02:56:52.815Z,100.00
2022-11-12T02:59:19.014Z,100.00
2022-11-12T03:01:45.348Z,100.00
2022-11-12T03:01:51.472Z,100.00
2022-11-12T03:04:11.691Z,100.00
2022-11-12T03:06:38.139Z,100.00
2022-11-12T03:06:51.524Z,100.00
2022-11-12T03:09:04.509Z,100.00
2022-11-12T03:11:30.937Z,100.00
2022-11-12T03:11:51.481Z,100.00
2022-11-12T03:13:57.266Z,100.00
2022-11-12T03:16:23.595Z,100.00
2022-11-12T03:16:51.668Z,100.00
2022-11-12T03:18:49.966Z,100.00
2022-11-12T03:21:16.361Z,100.00
2022-11-12T03:21:51.476Z,100.00
2022-11-12T03:23:42.679Z,100.00
2022-11-12T03:26:09.056Z,100.00
2022-11-12T03:26:51.476Z,100.00
2022-11-12T03:28:35.543Z,100.00
2022-11-12T03:31:02.305Z,100.00
2022-11-12T03:31:51.472Z,100.00
2022-11-12T03:33:28.704Z,100.00
2022-11-12T03:35:55.151Z,100.00
2022-11-12T03:36:51.602Z,100.00
2022-11-12T03:38:21.534Z,100.00
2022-11-12T03:40:49.155Z,100.00
2022-11-12T03:41:51.481Z,100.00
2022-11-12T03:43:15.610Z,100.00
2022-11-12T03:45:41.955Z,100.00
2022-11-12T03:46:51.488Z,100.00
2022-11-12T03:48:08.385Z,100.00
2022-11-12T03:50:34.785Z,100.00
2022-11-12T03:51:51.485Z,100.00
2022-11-12T03:53:01.195Z,100.00
2022-11-12T03:55:29.346Z,100.00
2022-11-12T03:56:51.476Z,100.00
2022-11-12T03:57:57.198Z,100.00
2022-11-12T04:00:25.293Z,100.00
2022-11-12T04:01:51.527Z,100.00
2022-11-12T04:02:52.196Z,100.00
2022-11-12T04:05:37.673Z,100.00
2022-11-12T04:06:51.536Z,100.00
2022-11-12T04:08:26.064Z,100.00
2022-11-12T04:10:52.881Z,100.00
2022-11-12T04:11:51.485Z,100.00
2022-11-12T04:13:28.636Z,100.00
2022-11-12T04:16:28.860Z,100.00
2022-11-12T04:16:51.489Z,100.00
2022-11-12T04:19:16.455Z,100.00
2022-11-12T04:21:55.206Z,100.00
2022-11-12T04:21:55.337Z,100.00
2022-11-12T04:24:54.914Z,100.00
2022-11-12T04:26:51.465Z,100.00
2022-11-12T04:27:24.271Z,100.00
2022-11-12T04:30:10.943Z,100.00
2022-11-12T04:31:51.480Z,100.00
2022-11-12T04:32:40.110Z,100.00
2022-11-12T04:35:08.781Z,100.00
2022-11-12T04:36:51.513Z,100.00
2022-11-12T04:37:45.608Z,100.00
2022-11-12T04:40:42.670Z,100.00
2022-11-12T04:41:51.490Z,100.00
2022-11-12T04:43:31.207Z,100.00
2022-11-12T04:45:58.456Z,100.00
2022-11-12T04:46:51.475Z,100.00
2022-11-12T04:48:26.002Z,100.00
2022-11-12T04:50:58.678Z,100.00
2022-11-12T04:51:51.468Z,100.00
2022-11-12T04:53:25.717Z,100.00
2022-11-12T04:55:53.403Z,100.00
2022-11-12T04:56:51.481Z,100.00
2022-11-12T04:58:20.145Z,100.00
2022-11-12T05:00:47.201Z,100.00
2022-11-12T05:01:51.509Z,100.00
2022-11-12T05:03:13.593Z,100.00
2022-11-12T05:05:40.187Z,100.00
2022-11-12T05:06:51.578Z,100.00
2022-11-12T05:08:06.690Z,100.00
2022-11-12T05:10:33.216Z,100.00
2022-11-12T05:11:51.482Z,100.00
2022-11-12T05:12:59.699Z,100.00
2022-11-12T05:15:26.323Z,100.00
2022-11-12T05:16:51.527Z,100.00
2022-11-12T05:17:52.813Z,100.00
2022-11-12T05:20:19.179Z,100.00
2022-11-12T05:21:51.473Z,100.00
2022-11-12T05:22:59.053Z,100.00
2022-11-12T05:25:31.785Z,100.00
2022-11-12T05:26:51.496Z,100.00
2022-11-12T05:27:58.129Z,100.00
2022-11-12T05:30:24.444Z,100.00
2022-11-12T05:31:51.494Z,100.00
2022-11-12T05:32:51.213Z,100.00
2022-11-12T05:35:17.524Z,100.00
2022-11-12T05:36:51.538Z,100.00
2022-11-12T05:37:43.997Z,100.00
2022-11-12T05:40:10.596Z,100.00
2022-11-12T05:42:11.995Z,100.00
2022-11-12T05:42:37.180Z,100.00
2022-11-12T05:45:04.258Z,100.00
2022-11-12T05:46:51.483Z,100.00
2022-11-12T05:47:30.619Z,100.00
2022-11-12T05:49:56.996Z,100.00
2022-11-12T05:51:51.508Z,100.00
2022-11-12T05:52:23.413Z,100.00
2022-11-12T05:54:49.863Z,100.00
2022-11-12T05:56:51.493Z,100.00
2022-11-12T05:57:16.310Z,100.00
2022-11-12T05:59:42.648Z,100.00
2022-11-12T06:01:51.486Z,100.00
2022-11-12T06:02:09.005Z,100.00
2022-11-12T06:04:35.439Z,100.00
2022-11-12T06:06:51.545Z,100.00
2022-11-12T06:07:04.031Z,100.00
2022-11-12T06:09:30.632Z,100.00
2022-11-12T06:11:51.491Z,100.00
2022-11-12T06:11:57.131Z,100.00
2022-11-12T06:14:23.589Z,100.00
2022-11-12T06:16:49.972Z,100.00
2022-11-12T06:16:51.710Z,100.00
2022-11-12T06:19:16.278Z,100.00
2022-11-12T06:21:42.699Z,100.00
2022-11-12T06:21:51.488Z,100.00
2022-11-12T06:24:09.651Z,100.00
2022-11-12T06:26:37.800Z,100.00
2022-11-12T06:26:51.487Z,100.00
2022-11-12T06:29:04.219Z,100.00
2022-11-12T06:31:30.560Z,100.00
2022-11-12T06:31:51.489Z,100.00
2022-11-12T06:33:56.974Z,100.00
2022-11-12T06:36:23.386Z,100.00
2022-11-12T06:36:51.545Z,100.00
2022-11-12T06:38:50.005Z,100.00
2022-11-12T06:41:16.339Z,100.00
2022-11-12T06:41:51.597Z,100.00
2022-11-12T06:43:42.769Z,100.00
2022-11-12T06:46:14.433Z,100.00
2022-11-12T06:46:51.485Z,100.00
2022-11-12T06:48:41.459Z,100.00
2022-11-12T06:51:15.501Z,100.00
2022-11-12T06:51:51.486Z,100.00
2022-11-12T06:53:41.834Z,100.00
2022-11-12T06:56:08.672Z,100.00
2022-11-12T06:56:51.506Z,100.00
2022-11-12T06:58:35.618Z,100.00
2022-11-12T07:01:13.464Z,100.00
2022-11-12T07:01:51.512Z,100.00
2022-11-12T07:03:41.807Z,100.00
2022-11-12T07:06:14.772Z,100.00
2022-11-12T07:06:51.576Z,100.00
2022-11-12T07:08:41.744Z,100.00
2022-11-12T07:11:08.350Z,100.00
2022-11-12T07:11:51.496Z,100.00
2022-11-12T07:13:35.834Z,100.00
2022-11-12T07:16:03.575Z,100.00
2022-11-12T07:16:51.616Z,100.00
2022-11-12T07:18:30.795Z,100.00
2022-11-12T07:20:59.234Z,100.00
2022-11-12T07:21:51.516Z,100.00
2022-11-12T07:23:26.208Z,100.00
2022-11-12T07:26:20.969Z,100.00
2022-11-12T07:26:51.484Z,100.00
2022-11-12T07:28:48.679Z,100.00
2022-11-12T07:31:16.378Z,100.00
2022-11-12T07:31:51.514Z,100.00
2022-11-12T07:33:43.755Z,100.00
2022-11-12T07:36:12.868Z,100.00
2022-11-12T07:36:51.568Z,100.00
2022-11-12T07:38:41.254Z,100.00
2022-11-12T07:41:22.605Z,100.00
2022-11-12T07:41:51.524Z,100.00
2022-11-12T07:43:51.197Z,100.00
2022-11-12T07:46:23.056Z,100.00
2022-11-12T07:46:51.494Z,100.00
2022-11-12T07:48:49.699Z,100.00
2022-11-12T07:51:18.481Z,100.00
2022-11-12T07:51:51.482Z,100.00
2022-11-12T07:53:46.053Z,100.00
2022-11-12T07:56:17.424Z,100.00
2022-11-12T07:56:51.486Z,100.00
2022-11-12T07:58:44.600Z,100.00
2022-11-12T08:01:34.254Z,100.00
2022-11-12T08:01:51.555Z,100.00
2022-11-12T08:04:02.100Z,100.00
2022-11-12T08:06:30.269Z,100.00
2022-11-12T08:06:51.635Z,100.00
2022-11-12T08:08:58.120Z,100.00
2022-11-12T08:11:24.561Z,100.00
2022-11-12T08:11:51.502Z,100.00
2022-11-12T08:13:51.341Z,100.00
2022-11-12T08:16:18.008Z,100.00
2022-11-12T08:16:51.539Z,100.00
2022-11-12T08:18:47.676Z,100.00
2022-11-12T08:21:16.245Z,100.00
2022-11-12T08:21:51.495Z,100.00
2022-11-12T08:23:42.711Z,100.00
2022-11-12T08:26:12.498Z,100.00
2022-11-12T08:26:51.497Z,100.00
2022-11-12T08:28:39.501Z,100.00
2022-11-12T08:31:12.063Z,100.00
2022-11-12T08:31:51.527Z,100.00
2022-11-12T08:33:39.181Z,100.00
2022-11-12T08:36:07.691Z,100.00
2022-11-12T08:36:51.619Z,100.00
2022-11-12T08:38:34.655Z,100.00
2022-11-12T08:41:02.696Z,100.00
2022-11-12T08:41:51.507Z,100.00
2022-11-12T08:43:29.046Z,100.00
2022-11-12T08:45:59.655Z,100.00
2022-11-12T08:46:51.485Z,100.00
2022-11-12T08:48:27.756Z,100.00
2022-11-12T08:50:54.852Z,100.00
2022-11-12T08:51:51.499Z,100.00
2022-11-12T08:53:23.223Z,100.00
2022-11-12T08:55:53.689Z,100.00
2022-11-12T08:56:51.497Z,100.00
2022-11-12T08:58:20.171Z,100.00
2022-11-12T09:00:46.769Z,100.00
2022-11-12T09:01:51.562Z,100.00
2022-11-12T09:03:15.468Z,100.00
2022-11-12T09:05:42.097Z,100.00
2022-11-12T09:06:54.068Z,100.00
2022-11-12T09:08:14.702Z,100.00
2022-11-12T09:10:43.515Z,100.00
2022-11-12T09:11:51.542Z,100.00
2022-11-12T09:13:10.238Z,100.00
2022-11-12T09:15:38.356Z,100.00
2022-11-12T09:16:52.005Z,100.00
2022-11-12T09:18:12.146Z,100.00
2022-11-12T09:20:38.514Z,100.00
2022-11-12T09:21:51.597Z,100.00
2022-11-12T09:23:10.963Z,100.00
2022-11-12T09:25:37.866Z,100.00
2022-11-12T09:26:51.638Z,100.00
2022-11-12T09:28:12.745Z,100.00
2022-11-12T09:30:43.473Z,100.00
2022-11-12T09:31:51.662Z,100.00
2022-11-12T09:33:09.840Z,100.00
2022-11-12T09:35:36.184Z,100.00
2022-11-12T09:36:51.708Z,100.00
2022-11-12T09:38:02.519Z,100.00
2022-11-12T09:40:52.656Z,100.00
2022-11-12T09:41:51.664Z,100.00
2022-11-12T09:43:25.629Z,100.00
2022-11-12T09:46:13.557Z,100.00
2022-11-12T09:46:51.619Z,100.00
2022-11-12T09:48:47.461Z,100.00
2022-11-12T09:51:25.006Z,100.00
2022-11-12T09:51:51.631Z,100.00
2022-11-12T09:54:11.147Z,100.00
2022-11-12T09:56:37.529Z,100.00
2022-11-12T09:56:51.638Z,100.00
2022-11-12T09:59:03.955Z,100.00
2022-11-12T10:01:58.157Z,100.00
2022-11-12T10:01:58.457Z,100.00
2022-11-12T10:04:42.979Z,98.83
2022-11-12T10:06:51.655Z,98.83
2022-11-12T10:07:37.004Z,96.70
2022-11-12T10:10:15.383Z,96.54
2022-11-12T10:11:51.625Z,96.54
2022-11-12T10:12:47.525Z,96.40
2022-11-12T10:15:58.498Z,94.81
2022-11-12T10:16:51.682Z,94.81
2022-11-12T10:19:05.318Z,93.73
2022-11-12T10:21:40.998Z,93.46
2022-11-12T10:21:51.621Z,93.46
2022-11-12T10:24:10.187Z,92.61
2022-11-12T10:26:38.813Z,92.59
2022-11-12T10:26:51.654Z,92.59
2022-11-12T10:29:22.463Z,92.08
2022-11-12T10:31:48.827Z,92.29
2022-11-12T10:31:51.630Z,92.29
2022-11-12T10:34:15.184Z,91.78
2022-11-12T10:37:18.918Z,90.64
2022-11-12T10:37:19.071Z,90.64
2022-11-12T10:39:47.542Z,89.29
2022-11-12T10:41:51.613Z,89.29
2022-11-12T10:42:16.449Z,88.82
2022-11-12T10:44:43.919Z,89.56
2022-11-12T10:46:51.633Z,89.56
2022-11-12T10:47:38.646Z,89.73
2022-11-12T10:50:08.022Z,89.80
2022-11-12T10:51:51.664Z,89.80
2022-11-12T10:52:35.443Z,89.33
2022-11-12T10:55:28.290Z,89.47
2022-11-12T10:56:55.494Z,89.47
2022-11-12T10:58:13.170Z,88.77
2022-11-12T11:01:07.357Z,88.62
2022-11-12T11:01:51.695Z,88.62
2022-11-12T11:03:36.312Z,88.58
2022-11-12T11:06:18.256Z,88.57
2022-11-12T11:06:51.703Z,88.57
2022-11-12T11:08:50.819Z,88.22
2022-11-12T11:11:19.566Z,86.86
2022-11-12T11:11:51.633Z,86.86
2022-11-12T11:13:51.439Z,85.72
2022-11-12T11:16:27.403Z,85.79
2022-11-12T11:16:51.833Z,85.79
2022-11-12T11:19:00.021Z,84.56
2022-11-12T11:21:42.240Z,84.45
2022-11-12T11:21:51.647Z,84.45
2022-11-12T11:24:29.968Z,83.94
2022-11-12T11:26:51.642Z,83.94
2022-11-12T11:27:12.227Z,83.09
2022-11-12T11:29:51.672Z,83.68
2022-11-12T11:31:51.626Z,83.68
2022-11-12T11:32:37.785Z,82.38
2022-11-12T11:35:17.969Z,81.27
2022-11-12T11:36:51.738Z,81.27
2022-11-12T11:38:01.416Z,81.07
2022-11-12T11:40:31.845Z,80.61
2022-11-12T11:41:51.656Z,80.61
2022-11-12T11:43:11.488Z,80.32
2022-11-12T11:46:11.103Z,78.72
2022-11-12T11:46:51.640Z,78.72
2022-11-12T11:48:49.422Z,78.94
2022-11-12T11:51:40.075Z,78.50
2022-11-12T11:51:51.635Z,78.50
2022-11-12T11:54:13.355Z,78.49
2022-11-12T11:56:44.385Z,78.56
2022-11-12T11:56:51.644Z,78.56
2022-11-12T11:59:23.021Z,77.61
2022-11-12T12:02:10.741Z,77.86
2022-11-12T12:02:10.859Z,77.86
2022-11-12T12:04:51.576Z,76.87
2022-11-12T12:06:51.705Z,76.87
2022-11-12T12:07:41.733Z,76.95
2022-11-12T12:10:09.550Z,77.76
2022-11-12T12:11:51.644Z,77.76
2022-11-12T12:12:47.844Z,76.91
2022-11-12T12:15:23.263Z,77.02
2022-11-12T12:16:51.820Z,77.02
2022-11-12T12:18:03.883Z,77.32
2022-11-12T12:20:59.797Z,77.60
2022-11-12T12:21:51.640Z,77.60
2022-11-12T12:23:33.555Z,77.55
2022-11-12T12:26:03.272Z,77.23
2022-11-12T12:26:51.668Z,77.23
2022-11-12T12:28:55.316Z,77.60
2022-11-12T12:31:27.536Z,77.38
2022-11-12T12:31:51.645Z,77.38
2022-11-12T12:33:58.756Z,76.83
2022-11-12T12:36:27.021Z,77.97
2022-11-12T12:36:51.660Z,77.97
2022-11-12T12:38:53.354Z,78.05
2022-11-12T12:41:27.840Z,78.24
2022-11-12T12:41:51.672Z,78.24
2022-11-12T12:43:59.271Z,77.71
2022-11-12T12:46:30.594Z,77.77
2022-11-12T12:46:51.650Z,77.77
2022-11-12T12:48:59.792Z,76.25
2022-11-12T12:51:31.124Z,76.49
2022-11-12T12:51:55.572Z,76.49
2022-11-12T12:53:57.677Z,76.22
2022-11-12T12:56:24.003Z,77.00
2022-11-12T12:56:51.630Z,77.00
2022-11-12T12:58:50.837Z,76.39
2022-11-12T13:01:20.776Z,76.49
2022-11-12T13:01:51.655Z,76.49
2022-11-12T13:04:08.592Z,76.45
2022-11-12T13:06:39.593Z,76.33
2022-11-12T13:06:51.667Z,76.33
2022-11-12T13:09:17.824Z,75.71
2022-11-12T13:12:02.652Z,77.52
2022-11-12T13:12:02.794Z,77.52
2022-11-12T13:14:34.896Z,77.54
2022-11-12T13:16:51.633Z,77.54
2022-11-12T13:17:07.010Z,77.57
2022-11-12T13:19:39.517Z,77.64
2022-11-12T13:21:51.642Z,77.64
2022-11-12T13:22:17.827Z,77.49
2022-11-12T13:25:24.799Z,76.26
2022-11-12T13:26:51.645Z,76.26
2022-11-12T13:27:51.060Z,76.50
2022-11-12T13:30:20.731Z,77.10
2022-11-12T13:31:51.634Z,77.10
2022-11-12T13:32:47.049Z,76.94
2022-11-12T13:35:22.456Z,77.06
2022-11-12T13:36:51.681Z,77.06
2022-11-12T13:38:04.160Z,77.62
2022-11-12T13:40:30.545Z,78.21
2022-11-12T13:41:51.648Z,78.21
2022-11-12T13:43:28.497Z,78.50
2022-11-12T13:46:02.673Z,80.04
2022-11-12T13:46:51.647Z,80.04
2022-11-12T13:48:45.084Z,79.68
2022-11-12T13:51:14.244Z,80.54
2022-11-12T13:51:51.718Z,80.54
2022-11-12T13:53:41.848Z,80.77
2022-11-12T13:56:11.356Z,81.86
2022-11-12T13:56:51.648Z,81.86
2022-11-12T13:58:41.427Z,83.30
2022-11-12T14:01:08.066Z,83.90
2022-11-12T14:01:51.634Z,83.90
2022-11-12T14:03:47.052Z,84.44
2022-11-12T14:06:34.757Z,86.01
2022-11-12T14:06:51.697Z,86.01
2022-11-12T14:09:30.678Z,86.30
2022-11-12T14:11:51.642Z,86.30
2022-11-12T14:12:12.317Z,87.46
2022-11-12T14:15:04.051Z,87.64
2022-11-12T14:16:51.661Z,87.64
2022-11-12T14:17:50.726Z,89.03
2022-11-12T14:20:29.224Z,89.11
2022-11-12T14:21:51.683Z,89.11
2022-11-12T14:22:55.966Z,89.39
2022-11-12T14:25:27.542Z,89.68
2022-11-12T14:26:51.658Z,89.68
2022-11-12T14:27:55.790Z,89.84
2022-11-12T14:30:31.923Z,90.32
2022-11-12T14:31:51.682Z,90.32
2022-11-12T14:33:00.749Z,91.18
2022-11-12T14:35:27.301Z,91.40
2022-11-12T14:36:51.685Z,91.40
2022-11-12T14:37:58.715Z,91.27
2022-11-12T14:40:27.571Z,91.15
2022-11-12T14:41:51.645Z,91.15
2022-11-12T14:42:54.507Z,91.37
2022-11-12T14:45:23.066Z,91.08
2022-11-12T14:46:51.682Z,91.08
2022-11-12T14:47:52.519Z,91.24
2022-11-12T14:50:29.277Z,91.62
2022-11-12T14:51:51.657Z,91.62
2022-11-12T14:53:01.947Z,90.62
2022-11-12T14:55:30.447Z,90.96
2022-11-12T14:56:51.699Z,23
2022-11-12T14:58:00.279Z,90.39
2022-11-12T15:00:32.529Z,90.85
2022-11-12T15:02:27.855Z,90.85
2022-11-12T15:03:01.133Z,89.90
2022-11-12T15:05:28.125Z,90.39
2022-11-12T15:06:51.672Z,90.39
2022-11-12T15:08:11.569Z,90.88
2022-11-12T15:10:41.134Z,90.07
2022-11-12T15:11:51.663Z,90.07
2022-11-12T15:13:21.556Z,90.33
2022-11-12T15:16:08.350Z,89.94
2022-11-12T15:16:51.653Z,89.94
2022-11-12T15:18:36.998Z,89.99
2022-11-12T15:21:11.014Z,89.85
2022-11-12T15:21:51.935Z,89.85
2022-11-12T15:23:50.032Z,89.23
2022-11-12T15:26:36.224Z,89.94
2022-11-12T15:26:51.660Z,89.94
2022-11-12T15:29:11.483Z,90.66
2022-11-12T15:31:49.548Z,90.05
2022-11-12T15:31:51.656Z,90.05
2022-11-12T15:34:45.280Z,89.77
2022-11-12T15:36:51.699Z,89.77
2022-11-12T15:37:19.173Z,89.37
2022-11-12T15:39:53.567Z,89.72
2022-11-12T15:41:51.666Z,89.72
2022-11-12T15:42:29.127Z,89.66
2022-11-12T15:45:01.929Z,89.31
2022-11-12T15:46:51.668Z,89.31
2022-11-12T15:47:28.585Z,89.92
2022-11-12T15:49:58.624Z,89.86
2022-11-12T15:51:51.651Z,89.86
2022-11-12T15:52:25.284Z,89.53
2022-11-12T15:54:51.692Z,88.19
2022-11-12T15:56:51.668Z,88.19
2022-11-12T15:57:25.119Z,88.74
2022-11-12T16:00:07.841Z,87.69
2022-11-12T16:01:51.663Z,87.69
2022-11-12T16:02:35.048Z,87.35
2022-11-12T16:05:01.439Z,87.67
2022-11-12T16:06:51.796Z,87.67
2022-11-12T16:07:27.857Z,87.99
2022-11-12T16:09:54.285Z,88.62
2022-11-12T16:11:51.667Z,88.62
2022-11-12T16:12:20.817Z,89.44
2022-11-12T16:14:47.196Z,89.82
2022-11-12T16:16:51.666Z,89.82
2022-11-12T16:17:15.825Z,90.55
2022-11-12T16:19:42.339Z,90.83
2022-11-12T16:21:51.700Z,90.83
2022-11-12T16:22:12.611Z,91.52
2022-11-12T16:24:42.509Z,92.01
2022-11-12T16:26:51.668Z,92.01
2022-11-12T16:27:14.123Z,92.21
2022-11-12T16:29:41.001Z,93.22
2022-11-12T16:31:51.685Z,93.22
2022-11-12T16:32:12.237Z,94.19
2022-11-12T16:34:38.586Z,94.06
2022-11-12T16:36:51.734Z,94.06
2022-11-12T16:37:04.899Z,94.60
2022-11-12T16:39:31.530Z,94.80
2022-11-12T16:41:51.663Z,94.80
2022-11-12T16:41:57.898Z,94.19
2022-11-12T16:44:24.273Z,94.20
2022-11-12T16:46:50.686Z,94.47
2022-11-12T16:46:51.685Z,94.47
2022-11-12T16:49:17.244Z,93.71
2022-11-12T16:51:43.616Z,91.75
2022-11-12T16:51:51.669Z,91.75
2022-11-12T16:54:10.362Z,91.24
2022-11-12T16:56:37.323Z,91.15
2022-11-12T16:56:51.667Z,91.15
2022-11-12T16:59:04.457Z,91.05
2022-11-12T17:01:34.007Z,90.63
2022-11-12T17:01:51.672Z,90.63
2022-11-12T17:04:00.345Z,89.85
2022-11-12T17:06:38.784Z,90.14
2022-11-12T17:06:51.732Z,90.14
2022-11-12T17:09:07.277Z,89.67
2022-11-12T17:11:34.945Z,90.27
2022-11-12T17:11:51.676Z,90.27
2022-11-12T17:14:02.362Z,90.82
2022-11-12T17:16:29.313Z,90.53
2022-11-12T17:16:51.713Z,90.53
2022-11-12T17:18:57.311Z,89.98
2022-11-12T17:21:23.956Z,90.35
2022-11-12T17:21:51.861Z,90.35
2022-11-12T17:23:51.012Z,89.69
2022-11-12T17:26:20.766Z,89.61
2022-11-12T17:26:51.732Z,89.61
2022-11-12T17:28:48.410Z,89.81
2022-11-12T17:31:19.286Z,91.48
2022-11-12T17:31:51.692Z,91.48
2022-11-12T17:33:50.377Z,91.95
2022-11-12T17:36:25.946Z,91.75
2022-11-12T17:36:51.772Z,91.75
2022-11-12T17:39:00.158Z,92.11
2022-11-12T17:41:30.680Z,91.49
2022-11-12T17:41:51.669Z,91.49
2022-11-12T17:43:58.602Z,91.58
2022-11-12T17:46:25.564Z,91.05
2022-11-12T17:46:51.697Z,91.05
2022-11-12T17:48:52.719Z,91.21
2022-11-12T17:51:21.336Z,90.53
2022-11-12T17:51:51.687Z,90.53
2022-11-12T17:53:48.177Z,90.33
2022-11-12T17:56:17.327Z,90.31
2022-11-12T17:56:51.695Z,90.31
2022-11-12T17:58:47.845Z,89.59
2022-11-12T18:01:25.823Z,89.95
2022-11-12T18:01:51.695Z,89.95
2022-11-12T18:03:54.153Z,89.70
2022-11-12T18:06:23.350Z,89.18
2022-11-12T18:06:51.755Z,89.18
2022-11-12T18:08:56.052Z,88.83
2022-11-12T18:11:23.680Z,88.74
2022-11-12T18:11:51.684Z,88.74
2022-11-12T18:13:49.987Z,88.98
2022-11-12T18:16:20.011Z,88.71
2022-11-12T18:16:51.693Z,88.71
2022-11-12T18:18:46.455Z,88.45
2022-11-12T18:21:13.682Z,88.35
2022-11-12T18:21:51.731Z,88.35
2022-11-12T18:23:42.106Z,88.49
2022-11-12T18:26:08.436Z,88.70
2022-11-12T18:26:51.738Z,88.70
2022-11-12T18:28:34.810Z,88.71
2022-11-12T18:31:06.096Z,88.57
2022-11-12T18:31:51.696Z,88.57
2022-11-12T18:33:32.723Z,88.71
2022-11-12T18:36:06.824Z,88.67
2022-11-12T18:36:51.756Z,88.67
2022-11-12T18:38:34.692Z,88.21
2022-11-12T18:41:02.040Z,88.31
2022-11-12T18:41:51.718Z,88.31
2022-11-12T18:43:28.939Z,88.58
2022-11-12T18:46:02.049Z,88.03
2022-11-12T18:46:51.706Z,88.03
2022-11-12T18:48:30.582Z,88.26
2022-11-12T18:51:02.637Z,88.39
2022-11-12T18:51:51.914Z,88.39
2022-11-12T18:53:30.337Z,88.47
2022-11-12T18:56:00.717Z,88.87
2022-11-12T18:56:51.709Z,88.87
2022-11-12T18:58:33.664Z,88.56
2022-11-12T19:01:06.406Z,88.95
2022-11-12T19:01:51.720Z,88.95
2022-11-12T19:03:33.099Z,89.31
2022-11-12T19:06:00.901Z,89.68
2022-11-12T19:06:51.788Z,89.68
2022-11-12T19:08:27.387Z,90.21
2022-11-12T19:10:58.466Z,90.13
2022-11-12T19:11:51.695Z,90.13
2022-11-12T19:13:25.532Z,90.45
2022-11-12T19:15:52.526Z,90.91
2022-11-12T19:16:51.709Z,90.91
2022-11-12T19:18:19.107Z,90.79
2022-11-12T19:20:47.636Z,90.24
2022-11-12T19:21:52.019Z,90.24
2022-11-12T19:23:14.168Z,90.94
2022-11-12T19:25:40.553Z,91.39
2022-11-12T19:26:51.706Z,91.39
2022-11-12T19:28:06.883Z,91.82
2022-11-12T19:30:33.303Z,91.63
2022-11-12T19:31:51.707Z,91.63
2022-11-12T19:32:59.651Z,92.50
2022-11-12T19:35:25.984Z,91.86
2022-11-12T19:37:11.813Z,91.86
2022-11-12T19:37:52.389Z,92.03
2022-11-12T19:40:18.862Z,92.37
2022-11-12T19:41:51.729Z,92.37
2022-11-12T19:42:46.857Z,91.59
2022-11-12T19:45:13.202Z,92.19
2022-11-12T19:46:51.698Z,92.19
2022-11-12T19:47:40.376Z,91.10
2022-11-12T19:50:07.340Z,91.05
2022-11-12T19:51:51.696Z,91.05
2022-11-12T19:52:33.683Z,90.46
2022-11-12T19:55:00.888Z,90.95
2022-11-12T19:56:51.705Z,90.95
2022-11-12T19:57:28.957Z,90.77
2022-11-12T19:59:55.385Z,90.30
2022-11-12T20:01:51.762Z,90.30
2022-11-12T20:02:21.704Z,90.84
2022-11-12T20:04:48.049Z,91.33
2022-11-12T20:06:51.816Z,91.33
2022-11-12T20:07:14.506Z,91.27
2022-11-12T20:09:40.889Z,91.17
2022-11-12T20:11:51.920Z,91.17
2022-11-12T20:12:07.688Z,91.93
2022-11-12T20:14:34.111Z,92.20
2022-11-12T20:16:51.694Z,92.20
2022-11-12T20:17:00.432Z,92.76
2022-11-12T20:19:26.798Z,93.22
2022-11-12T20:21:51.927Z,93.22
2022-11-12T20:21:53.110Z,93.56
2022-11-12T20:24:19.566Z,93.95
2022-11-12T20:26:45.896Z,94.33
2022-11-12T20:26:51.706Z,94.33
2022-11-12T20:29:12.219Z,93.97
2022-11-12T20:31:38.613Z,94.13
2022-11-12T20:31:51.711Z,94.13
2022-11-12T20:34:04.968Z,93.96
2022-11-12T20:36:31.403Z,94.07
2022-11-12T20:36:51.800Z,94.07
2022-11-12T20:38:58.400Z,94.85
2022-11-12T20:41:26.645Z,95.18
2022-11-12T20:41:51.731Z,95.18
2022-11-12T20:43:58.424Z,95.71
2022-11-12T20:46:26.129Z,96.15
2022-11-12T20:46:51.735Z,96.15
2022-11-12T20:48:54.679Z,96.23
2022-11-12T20:51:25.270Z,96.62
2022-11-12T20:51:51.715Z,96.62
2022-11-12T20:54:00.001Z,97.70
2022-11-12T20:56:28.808Z,97.87
2022-11-12T20:56:51.757Z,97.87
2022-11-12T20:58:55.253Z,97.77
2022-11-12T21:01:23.978Z,98.44
2022-11-12T21:01:51.694Z,98.44
2022-11-12T21:03:50.996Z,98.55
2022-11-12T21:06:20.276Z,99.03
2022-11-12T21:06:51.741Z,99.03
2022-11-12T21:08:47.005Z,99.59
2022-11-12T21:11:15.648Z,99.95
2022-11-12T21:11:51.707Z,99.95
2022-11-12T21:13:42.719Z,99.52
2022-11-12T21:16:11.125Z,100.00